Time;durP1;ratioP1;P1;durP2;ratioP2;P2;SDS_P1;SDS_P2;PMS_P1;PMS_P2;Temp;Humidity;BMP_temperature;BMP_pressure;BME280_temperature;BME280_humidity;BME280_pressure;Samples;Min_cycle;Max_cycle;Signal;HPM_P1;HPM_P2
2021/03/05 00:02:06;;;;;;;13.68;10.00;;;;;;;8.55;39.16;93688.31;4976867;28;20026;-83
2021/03/05 00:04:49;;;;;;;17.60;10.55;;;;;;;8.92;39.10;93754.34;5008115;28;20033;-83
2021/03/05 00:07:50;;;;;;;15.95;10.80;;;;;;;8.81;39.41;93738.88;4931403;28;20053;-83
2021/03/05 00:10:22;;;;;;;18.85;12.57;;;;;;;8.26;39.37;93680.34;4976021;28;20030;-83
2021/03/05 00:12:55;;;;;;;18.00;11.10;;;;;;;8.42;40.09;93705.53;4981531;28;20050;-83
2021/03/05 00:15:42;;;;;;;20.92;12.07;;;;;;;8.06;40.64;93683.94;5006448;28;20418;-83
2021/03/05 00:18:17;;;;;;;29.55;15.85;;;;;;;8.57;40.58;93746.75;4960628;28;20570;-82
2021/03/05 00:20:59;;;;;;;19.90;11.95;;;;;;;8.36;41.00;93756.66;4988760;28;20105;-83
2021/03/05 00:23:30;;;;;;;21.45;12.20;;;;;;;8.21;40.71;93733.84;4962547;28;20531;-83
2021/03/05 00:25:59;;;;;;;17.67;11.57;;;;;;;8.11;40.48;93712.84;4989737;28;20018;-83
2021/03/05 00:28:30;;;;;;;21.55;11.02;;;;;;;8.30;40.71;93751.72;4963878;28;20039;-83
2021/03/05 00:30:59;;;;;;;19.80;11.80;;;;;;;8.22;39.95;93719.63;4957651;28;20041;-83
2021/03/05 00:33:30;;;;;;;19.88;12.20;;;;;;;8.33;40.90;93751.94;4985180;28;20030;-83
2021/03/05 00:35:56;;;;;;;19.42;12.20;;;;;;;7.81;40.74;93677.03;4973176;28;20058;-83
2021/03/05 00:38:33;;;;;;;19.58;12.57;;;;;;;7.98;40.55;93697.69;4995366;28;20096;-83
2021/03/05 00:40:58;;;;;;;19.92;12.25;;;;;;;8.11;40.42;93719.97;5000135;28;20029;-83
2021/03/05 00:43:24;;;;;;;17.83;11.45;;;;;;;7.99;40.43;93686.13;4998897;28;20076;-83
2021/03/05 00:45:50;;;;;;;14.95;10.80;;;;;;;8.25;40.64;93729.63;5006740;28;20053;-83
2021/03/05 00:48:16;;;;;;;19.20;9.70;;;;;;;7.82;40.79;93675.16;5012755;28;20099;-84
2021/03/05 00:50:44;;;;;;;20.42;10.52;;;;;;;7.65;40.43;93656.38;5005036;28;20654;-83
2021/03/05 00:53:28;;;;;;;17.73;11.30;;;;;;;8.05;40.58;93719.22;4986494;28;20487;-83
2021/03/05 00:55:59;;;;;;;24.58;13.13;;;;;;;7.52;40.99;93651.72;4983846;28;20036;-83
2021/03/05 00:58:31;;;;;;;30.17;15.55;;;;;;;7.57;40.74;93654.31;4986374;28;20550;-84
2021/03/05 01:00:58;;;;;;;29.58;17.05;;;;;;;7.61;40.68;93663.22;4954502;28;20199;-83
2021/03/05 01:03:27;;;;;;;27.38;17.70;;;;;;;7.92;40.96;93709.31;5002791;28;20038;-84
2021/03/05 01:05:52;;;;;;;32.03;18.50;;;;;;;7.55;41.17;93661.69;4972948;28;20034;-83
2021/03/05 01:08:40;;;;;;;30.48;17.40;;;;;;;7.37;41.45;93640.25;4976259;28;20935;-83
2021/03/05 01:11:05;;;;;;;26.73;16.33;;;;;;;7.23;42.52;93639.25;4987350;28;20050;-83
2021/03/05 01:13:31;;;;;;;33.95;19.15;;;;;;;7.62;41.03;93672.69;4992080;28;20767;-83
2021/03/05 01:15:56;;;;;;;27.77;17.73;;;;;;;7.60;40.83;93669.53;4997975;28;20546;-83
2021/03/05 01:18:22;;;;;;;38.58;21.17;;;;;;;7.38;41.44;93646.25;4978624;28;20989;-83
2021/03/05 01:20:48;;;;;;;33.13;18.33;;;;;;;7.96;41.39;93720.09;5006139;28;20109;-83
2021/03/05 01:23:35;;;;;;;35.58;20.52;;;;;;;7.86;41.01;93713.06;5004902;28;20049;-84
2021/03/05 01:26:08;;;;;;;35.97;20.13;;;;;;;7.34;41.43;93627.63;4970840;28;20094;-83
2021/03/05 01:28:54;;;;;;;38.40;20.90;;;;;;;7.63;41.54;93695.28;4984887;28;20036;-83
2021/03/05 01:31:23;;;;;;;42.58;21.30;;;;;;;7.25;41.24;93631.88;5009851;28;20231;-83
2021/03/05 01:34:15;;;;;;;38.92;20.25;;;;;;;7.67;41.80;93712.88;4988143;28;20086;-83
2021/03/05 01:36:42;;;;;;;36.95;20.63;;;;;;;7.32;41.79;93669.19;4988171;28;20627;-83
2021/03/05 01:39:18;;;;;;;40.55;22.83;;;;;;;7.62;41.59;93699.00;4982563;28;20034;-83
2021/03/05 01:41:43;;;;;;;;;;;;;;;7.83;40.95;93708.31;4958983;28;20110;-83
2021/03/05 01:44:14;;;;;;;36.17;19.02;;;;;;;7.54;40.87;93646.97;4992078;28;20331;-83
2021/03/05 01:46:52;;;;;;;41.95;22.65;;;;;;;7.50;40.94;93643.31;5006894;28;20048;-83
2021/03/05 01:49:18;;;;;;;36.25;18.95;;;;;;;7.48;41.03;93661.22;4994330;28;20037;-83
2021/03/05 01:51:50;;;;;;;28.75;18.08;;;;;;;7.33;41.02;93649.72;4992606;28;20049;-83
2021/03/05 01:54:24;;;;;;;31.80;18.70;;;;;;;7.51;40.78;93671.19;4954023;28;20052;-83
2021/03/05 01:56:52;;;;;;;34.35;17.20;;;;;;;7.34;41.07;93645.25;4985109;28;20164;-84
2021/03/05 01:59:27;;;;;;;37.65;17.73;;;;;;;7.53;40.78;93659.31;5002920;28;20065;-83
2021/03/05 02:02:08;;;;;;;37.00;19.50;;;;;;;7.75;40.65;93685.22;5008543;28;20053;-83
2021/03/05 02:04:35;;;;;;;36.97;18.90;;;;;;;7.56;40.67;93660.63;5002124;28;20195;-83
2021/03/05 02:07:04;;;;;;;29.55;18.92;;;;;;;7.45;40.52;93641.50;4999676;28;20480;-83
2021/03/05 02:09:30;;;;;;;32.42;17.63;;;;;;;7.81;40.69;93689.41;5001686;28;20054;-83
2021/03/05 02:11:56;;;;;;;28.08;17.35;;;;;;;7.86;40.17;93686.75;4985040;28;20121;-84
2021/03/05 02:14:27;;;;;;;30.67;17.00;;;;;;;7.62;40.23;93652.44;4975503;28;20061;-83
2021/03/05 02:17:18;;;;;;;36.63;18.90;;;;;;;7.84;40.77;93710.69;4983716;28;20120;-83
2021/03/05 02:20:11;;;;;;;27.58;17.27;;;;;;;7.78;41.31;93714.41;4980764;28;20045;-83
2021/03/05 02:23:12;;;;;;;28.23;17.67;;;;;;;7.55;41.63;93691.41;4985443;28;20034;-83
2021/03/05 02:26:03;;;;;;;26.80;16.70;;;;;;;7.66;41.96;93705.28;4923243;28;20131;-83
2021/03/05 02:28:48;;;;;;;28.08;15.18;;;;;;;7.45;42.33;93699.34;4985628;28;20038;-84
2021/03/05 02:31:34;;;;;;;26.27;15.63;;;;;;;7.45;42.99;93715.13;4991257;28;20069;-83
2021/03/05 02:34:14;;;;;;;23.35;15.10;;;;;;;6.90;43.59;93688.00;4951144;28;20611;-83
2021/03/05 02:37:00;;;;;;;28.45;16.33;;;;;;;7.03;43.36;93717.41;4989194;28;20053;-83
2021/03/05 02:40:01;;;;;;;27.13;16.95;;;;;;;7.06;44.25;93733.41;5007075;28;20033;-83
2021/03/05 02:42:37;;;;;;;30.70;16.58;;;;;;;6.91;43.85;93715.84;5004866;28;20105;-83
2021/03/05 02:45:35;;;;;;;;;;;;;;;6.84;44.41;93730.34;4949626;28;20042;-83
2021/03/05 02:48:23;;;;;;;25.95;15.07;;;;;;;6.37;44.39;93668.44;4992870;28;20534;-83
2021/03/05 02:50:58;;;;;;;25.83;14.63;;;;;;;6.51;45.01;93682.59;4957299;28;20410;-83
2021/03/05 02:53:27;;;;;;;21.42;13.95;;;;;;;6.47;45.00;93681.56;4943049;28;20619;-83
2021/03/05 02:56:03;;;;;;;28.20;15.18;;;;;;;6.38;45.15;93685.00;4980994;28;20136;-83
2021/03/05 02:58:30;;;;;;;28.40;15.10;;;;;;;6.09;44.70;93656.69;4927667;28;20041;-83
2021/03/05 03:00:56;;;;;;;30.63;15.35;;;;;;;6.44;44.98;93697.06;5006890;28;20423;-83
2021/03/05 03:03:23;;;;;;;27.50;15.60;;;;;;;6.13;45.05;93650.91;4975969;28;20124;-84
2021/03/05 03:05:53;;;;;;;24.90;15.27;;;;;;;6.18;45.04;93672.69;4991187;28;20104;-83
2021/03/05 03:08:29;;;;;;;27.85;15.40;;;;;;;6.42;44.85;93713.06;4999427;28;20415;-83
2021/03/05 03:10:55;;;;;;;27.70;15.15;;;;;;;6.52;45.10;93739.31;4992491;28;20054;-82
2021/03/05 03:13:24;;;;;;;25.60;14.18;;;;;;;6.19;44.96;93678.72;4991586;28;20539;-83
2021/03/05 03:15:56;;;;;;;26.42;15.70;;;;;;;6.06;45.14;93656.41;4988787;28;20090;-83
2021/03/05 03:18:26;;;;;;;32.13;14.35;;;;;;;6.53;45.14;93734.84;5008422;28;20037;-83
2021/03/05 03:20:56;;;;;;;21.30;14.25;;;;;;;6.16;45.66;93684.50;4975262;28;20569;-83
2021/03/05 03:23:24;;;;;;;40.00;19.08;;;;;;;6.50;45.77;93744.03;4973136;28;20055;-83
2021/03/05 03:25:59;;;;;;;39.42;22.63;;;;;;;6.27;46.50;93738.53;4965969;28;20032;-83
2021/03/05 03:28:40;;;;;;;27.27;17.23;;;;;;;6.02;45.92;93690.25;4931174;28;20451;-83
2021/03/05 03:31:14;;;;;;;39.72;19.92;;;;;;;6.03;46.52;93691.03;4973776;28;20185;-83
2021/03/05 03:33:49;;;;;;;28.87;16.03;;;;;;;5.94;45.78;93679.50;4979605;28;20041;-83
2021/03/05 03:36:22;;;;;;;;;;;;;;;6.39;45.47;93745.09;4929904;28;20066;-83
2021/03/05 03:38:55;;;;;;;27.48;12.93;;;;;;;5.87;45.45;93668.47;4956774;28;19921;-82
2021/03/05 03:41:28;;;;;;;26.45;14.82;;;;;;;5.84;45.51;93650.63;4955366;28;20054;-84
2021/03/05 03:44:04;;;;;;;28.33;16.00;;;;;;;6.11;45.30;93695.75;4968898;28;20022;-84
2021/03/05 03:47:02;;;;;;;26.83;16.52;;;;;;;6.49;44.85;93747.72;4953065;28;20423;-85
2021/03/05 03:50:02;;;;;;;27.42;14.73;;;;;;;6.30;45.31;93714.41;4959153;28;20033;-84
2021/03/05 03:53:08;;;;;;;22.08;12.98;;;;;;;5.86;45.60;93653.78;4845452;28;20057;-84
2021/03/05 03:55:44;;;;;;;26.38;14.10;;;;;;;6.42;45.41;93738.53;4938439;28;20131;-85
2021/03/05 03:58:29;;;;;;;22.85;14.75;;;;;;;6.05;45.45;93671.38;4961887;28;20042;-83
2021/03/05 04:01:17;;;;;;;28.90;14.43;;;;;;;6.59;45.51;93743.50;4974824;28;20544;-85
2021/03/05 04:04:13;;;;;;;20.02;12.63;;;;;;;6.70;45.52;93742.41;4913079;28;20039;-84
2021/03/05 04:06:40;;;;;;;23.38;13.20;;;;;;;6.62;45.62;93727.22;4986527;28;20155;-84
2021/03/05 04:09:11;;;;;;;29.88;14.52;;;;;;;6.53;45.63;93708.59;4971802;28;20037;-83
2021/03/05 04:11:43;;;;;;;23.60;13.75;;;;;;;6.50;45.94;93720.41;4922272;28;20636;-83
2021/03/05 04:14:10;;;;;;;29.45;15.93;;;;;;;6.75;45.81;93755.53;4953314;28;20049;-83
2021/03/05 04:16:44;;;;;;;26.73;15.40;;;;;;;6.52;45.40;93707.81;4985317;28;20091;-84
2021/03/05 04:19:11;;;;;;;37.25;16.85;;;;;;;6.40;45.68;93682.91;4987393;28;20053;-83
2021/03/05 04:21:37;;;;;;;32.28;17.90;;;;;;;6.46;45.72;93695.72;4969767;28;20030;-84
2021/03/05 04:24:06;;;;;;;22.98;13.55;;;;;;;6.36;45.56;93679.22;4968003;28;20074;-83
2021/03/05 04:26:32;;;;;;;25.30;14.48;;;;;;;6.40;45.72;93678.41;4959629;28;20038;-84
2021/03/05 04:28:57;;;;;;;27.42;16.98;;;;;;;6.80;45.62;93752.91;4991857;28;20021;-84
2021/03/05 04:31:23;;;;;;;32.13;14.40;;;;;;;6.44;45.63;93692.59;4996826;28;20033;-83
2021/03/05 04:34:12;;;;;;;27.95;14.10;;;;;;;6.61;45.58;93709.88;4991945;28;20687;-83
2021/03/05 04:36:49;;;;;;;26.85;15.55;;;;;;;6.36;45.61;93677.38;4933019;28;20548;-83
2021/03/05 04:39:17;;;;;;;29.67;16.52;;;;;;;6.63;45.85;93734.03;4975537;28;20041;-83
2021/03/05 04:41:48;;;;;;;27.42;15.38;;;;;;;6.33;46.02;93692.88;4989886;28;20038;-83
2021/03/05 04:44:14;;;;;;;21.45;12.30;;;;;;;6.57;45.59;93709.63;4988917;28;20061;-83
2021/03/05 04:46:42;;;;;;;19.77;11.15;;;;;;;6.58;46.05;93718.28;4989642;28;20117;-83
2021/03/05 04:49:08;;;;;;;28.33;11.75;;;;;;;6.43;46.16;93698.91;4988790;28;20034;-83
2021/03/05 04:52:06;;;;;;;22.23;11.40;;;;;;;6.57;45.48;93695.72;4950705;28;20102;-83
2021/03/05 04:54:32;;;;;;;28.67;11.68;;;;;;;6.81;45.62;93741.34;4986890;28;20198;-84
2021/03/05 04:57:09;;;;;;;20.83;11.15;;;;;;;6.91;45.94;93759.72;4916962;28;20046;-83
2021/03/05 04:59:42;;;;;;;16.50;11.32;;;;;;;6.58;46.04;93711.22;4967442;28;20037;-83
2021/03/05 05:02:15;;;;;;;23.00;11.40;;;;;;;6.46;46.21;93698.34;4977618;28;20072;-83
2021/03/05 05:04:58;;;;;;;;;;;;;;;;;;;;;
2021/03/05 05:07:27;;;;;;;20.38;13.25;;;;;;;6.98;45.00;93726.09;4970252;28;20293;-83
2021/03/05 05:10:02;;;;;;;33.88;13.00;;;;;;;7.52;44.59;93762.16;4978815;28;20116;-83
2021/03/05 05:15:27;;;;;;;20.27;13.30;;;;;;;8.30;42.74;93741.97;4985103;28;19957;-83
2021/03/05 05:18:33;;;;;;;24.52;13.02;;;;;;;8.64;41.67;93700.59;4956822;28;20042;-83
2021/03/05 05:21:18;;;;;;;49.50;14.88;;;;;;;8.72;40.74;93699.19;4979320;28;20677;-83
2021/03/05 05:24:02;;;;;;;;;;;;;;;8.97;41.56;93756.91;4945852;28;20123;-84
2021/03/05 05:26:30;;;;;;;23.27;14.10;;;;;;;8.55;41.88;93710.13;4962691;28;19924;-83
2021/03/05 05:28:57;;;;;;;42.72;21.77;;;;;;;8.71;41.95;93766.13;4967822;28;20114;-83
2021/03/05 05:31:36;;;;;;;30.42;17.48;;;;;;;8.32;41.76;93691.66;4962146;28;20153;-83
2021/03/05 05:34:08;;;;;;;29.17;15.63;;;;;;;8.38;42.19;93732.69;4962863;28;20509;-83
2021/03/05 05:37:14;;;;;;;26.05;15.32;;;;;;;8.72;42.56;93770.31;4950300;28;20061;-83
2021/03/05 05:40:31;;;;;;;23.92;14.65;;;;;;;8.83;43.21;93779.72;5143739;23;20155;-83
2021/03/05 05:43:39;;;;;;;22.00;12.35;;;;;;;8.68;41.45;93719.25;4894019;28;20391;-84
2021/03/05 05:46:10;;;;;;;24.73;12.98;;;;;;;8.56;42.73;93734.63;4930461;28;20494;-83
2021/03/05 05:49:07;;;;;;;27.00;14.32;;;;;;;8.65;42.66;93711.91;4902856;28;20386;-83
2021/03/05 05:51:48;;;;;;;26.58;14.20;;;;;;;9.93;40.34;93763.69;4875240;28;20046;-84
2021/03/05 05:54:39;;;;;;;25.73;11.55;;;;;;;10.53;38.14;93712.91;4929996;28;20039;-84
2021/03/05 05:57:55;;;;;;;36.13;15.68;;;;;;;11.64;37.01;93777.78;4943582;28;20050;-84
2021/03/05 06:01:23;;;;;;;;;;;;;;;;;;;;;
2021/03/05 06:04:43;;;;;;;24.00;14.90;;;;;;;14.40;33.60;93776.81;4915355;28;20080;-84
2021/03/05 06:07:20;;;;;;;;;;;;;;;;;;;;;
2021/03/05 06:10:16;;;;;;;30.30;16.30;;;;;;;16.22;29.59;93739.47;4889308;28;20050;-84
2021/03/05 06:12:52;;;;;;;30.13;16.52;;;;;;;17.04;28.22;93769.09;4970161;28;20077;-85
2021/03/05 06:16:06;;;;;;;29.20;15.90;;;;;;;16.88;28.51;93735.00;4930590;28;20620;-84
2021/03/05 06:18:41;;;;;;;37.67;17.15;;;;;;;16.89;27.35;93763.25;4910640;28;20101;-85
2021/03/05 06:21:07;;;;;;;37.72;19.25;;;;;;;16.84;27.38;93736.78;4960951;28;20599;-84
2021/03/05 06:23:35;;;;;;;33.47;20.08;;;;;;;18.07;26.12;93754.56;4968773;28;20029;-85
2021/03/05 06:29:35;;;;;;;45.58;19.50;;;;;;;19.50;24.13;93728.72;4902190;28;20030;-85
2021/03/05 06:33:13;;;;;;;35.20;19.35;;;;;;;20.70;22.79;93722.66;4952768;28;20843;-85
2021/03/05 06:35:51;;;;;;;43.13;18.80;;;;;;;20.51;23.05;93730.69;4872443;29;20515;-85
2021/03/05 06:41:36;;;;;;;34.13;17.98;;;;;;;21.55;21.97;93743.84;4981418;28;20510;-85
2021/03/05 06:44:46;;;;;;;27.70;14.43;;;;;;;21.86;20.92;93718.59;4946138;28;20073;-85
2021/03/05 06:47:30;;;;;;;50.67;18.23;;;;;;;22.35;21.27;93756.28;4896750;28;20035;-85
2021/03/05 06:50:28;;;;;;;39.85;19.58;;;;;;;21.96;21.62;93766.47;4972386;28;20255;-85
2021/03/05 06:53:55;;;;;;;27.45;16.88;;;;;;;21.70;20.86;93715.25;4936626;28;20042;-85
2021/03/05 06:57:21;;;;;;;;;;;;;;;;;;;;;
2021/03/05 06:59:53;;;;;;;34.25;15.50;;;;;;;23.23;20.10;93774.75;4934376;28;20152;-85
2021/03/05 07:02:41;;;;;;;;;;;;;;;;;;;;;
2021/03/05 07:05:59;;;;;;;31.00;15.68;;;;;;;23.63;19.78;93720.88;4972387;23;20050;-84
2021/03/05 07:09:04;;;;;;;28.63;17.85;;;;;;;23.96;19.34;93722.69;4788575;29;20107;-84
2021/03/05 07:12:15;;;;;;;32.58;16.90;;;;;;;24.51;19.07;93764.00;4867357;28;20059;-84
2021/03/05 07:14:52;;;;;;;32.38;15.32;;;;;;;25.35;18.01;93714.16;4921454;28;20058;-84
2021/03/05 07:17:53;;;;;;;30.77;15.23;;;;;;;26.08;17.54;93711.94;4948890;28;20046;-84
2021/03/05 07:20:26;;;;;;;28.02;15.23;;;;;;;26.13;17.13;93708.84;4942852;28;20053;-83
2021/03/05 07:23:04;;;;;;;28.23;15.40;;;;;;;26.76;16.92;93750.56;4965271;28;20574;-85
2021/03/05 07:26:08;;;;;;;23.40;14.38;;;;;;;27.34;16.34;93763.53;4907706;28;20043;-84
2021/03/05 07:28:35;;;;;;;28.17;13.90;;;;;;;27.06;16.31;93710.19;4957441;28;20038;-82
2021/03/05 07:31:05;;;;;;;22.10;13.15;;;;;;;26.97;16.23;93750.53;4971116;28;20050;-81
2021/03/05 07:33:37;;;;;;;26.48;14.88;;;;;;;26.40;16.70;93749.84;4952502;28;20217;-82
2021/03/05 07:36:09;;;;;;;31.67;16.80;;;;;;;26.25;17.07;93727.41;4966856;28;20106;-80
2021/03/05 07:38:40;;;;;;;32.40;16.38;;;;;;;26.99;16.48;93748.19;4939007;28;20221;-82
2021/03/05 07:41:07;;;;;;;28.27;15.55;;;;;;;27.60;16.17;93756.84;4961004;28;20050;-82
2021/03/05 07:43:37;;;;;;;24.40;15.85;;;;;;;27.86;15.37;93759.00;4972875;28;20030;-83
2021/03/05 07:46:03;;;;;;;37.05;18.52;;;;;;;28.62;14.87;93746.38;4956131;28;20785;-83
2021/03/05 07:48:31;;;;;;;23.42;15.85;;;;;;;28.75;14.76;93731.88;4956115;28;20047;-83
2021/03/05 07:50:59;;;;;;;26.73;14.75;;;;;;;28.70;14.66;93736.94;4952540;28;20062;-81
2021/03/05 07:53:24;;;;;;;27.92;16.58;;;;;;;29.21;14.53;93755.06;4955586;28;20130;-82
2021/03/05 07:55:53;;;;;;;21.38;15.38;;;;;;;30.71;13.95;93738.84;4973544;28;20042;-82
2021/03/05 07:58:46;;;;;;;33.10;15.90;;;;;;;32.70;12.28;93749.00;4971566;28;20525;-81
2021/03/05 08:01:12;;;;;;;22.27;14.77;;;;;;;32.29;12.57;93696.91;4943252;28;21344;-83
2021/03/05 08:03:54;;;;;;;29.27;16.45;;;;;;;33.90;11.75;93723.75;4972640;28;20022;-82
2021/03/05 08:06:28;;;;;;;28.95;15.18;;;;;;;34.47;11.18;93713.72;4970633;28;20129;-82
2021/03/05 08:09:11;;;;;;;28.80;15.57;;;;;;;35.18;10.60;93727.78;4971667;28;20240;-82
2021/03/05 08:11:38;;;;;;;25.67;14.65;;;;;;;35.81;10.51;93723.91;4967421;28;20058;-83
2021/03/05 08:14:19;;;;;;;24.45;14.57;;;;;;;36.08;10.05;93720.47;4962159;28;20030;-81
2021/03/05 08:16:48;;;;;;;27.13;14.85;;;;;;;36.01;10.23;93727.03;4932111;28;20027;-82
2021/03/05 08:19:14;;;;;;;27.70;15.68;;;;;;;36.45;9.84;93730.41;4985919;28;20133;-83
2021/03/05 08:31:47;;;;;;;28.40;16.95;;;;;;;36.03;9.58;93669.59;4962671;23;20103;-83
2021/03/05 08:34:29;;;;;;;23.20;15.98;;;;;;;36.16;9.35;93694.28;4917196;28;20054;-82
2021/03/05 08:36:54;;;;;;;22.38;16.27;;;;;;;36.33;9.53;93717.53;4948242;28;20069;-82
2021/03/05 08:39:29;;;;;;;25.88;14.40;;;;;;;35.75;9.20;93700.97;4951933;28;20042;-82
2021/03/05 08:42:30;;;;;;;24.33;13.07;;;;;;;36.02;9.59;93701.81;4949503;28;20043;-82
2021/03/05 08:45:19;;;;;;;21.30;13.10;;;;;;;36.48;9.03;93705.50;4955798;28;20031;-82
2021/03/05 08:48:01;;;;;;;18.08;12.05;;;;;;;36.29;8.99;93703.94;4910509;28;20058;-82
2021/03/05 08:50:54;;;;;;;23.00;13.15;;;;;;;35.34;9.25;93688.34;4935504;28;20058;-82
2021/03/05 08:53:19;;;;;;;20.65;14.63;;;;;;;33.55;10.04;93683.69;4941749;28;20505;-82
2021/03/05 08:55:47;;;;;;;17.38;9.48;;;;;;;32.45;8.95;93681.22;4918389;28;20034;-82
2021/03/05 08:58:16;;;;;;;17.73;10.43;;;;;;;32.22;9.82;93676.75;4908913;28;20596;-82
2021/03/05 09:00:42;;;;;;;10.82;5.65;;;;;;;32.21;9.30;93702.53;4935278;28;20721;-81
2021/03/05 09:03:13;;;;;;;8.00;4.28;;;;;;;31.96;9.13;93677.75;4916776;28;20513;-82
2021/03/05 09:05:47;;;;;;;5.85;3.63;;;;;;;32.02;8.71;93697.91;4935456;28;20051;-81
2021/03/05 09:08:18;;;;;;;22.45;11.88;;;;;;;31.68;10.12;93684.66;4934905;28;20629;-83
2021/03/05 09:10:46;;;;;;;8.18;4.50;;;;;;;31.61;8.81;93662.22;4937400;28;20028;-81
2021/03/05 09:13:21;;;;;;;10.18;6.55;;;;;;;30.72;9.85;93653.13;4937700;28;20035;-80
2021/03/05 09:15:51;;;;;;;10.75;5.57;;;;;;;31.27;9.27;93693.34;4932034;28;20046;-82
2021/03/05 09:18:27;;;;;;;16.50;9.35;;;;;;;30.45;10.43;93676.97;4921330;28;20115;-82
2021/03/05 09:20:58;;;;;;;37.05;19.77;;;;;;;30.37;12.36;93689.97;4934058;28;20114;-81
2021/03/05 09:23:42;;;;;;;42.83;24.05;;;;;;;29.28;13.04;93686.94;4921307;29;20042;-81
2021/03/05 09:26:15;;;;;;;37.70;23.77;;;;;;;29.10;13.07;93697.28;4912997;29;20038;-82
2021/03/05 09:28:43;;;;;;;36.42;24.48;;;;;;;28.32;13.57;93685.31;4924553;28;20035;-81
2021/03/05 09:31:10;;;;;;;43.05;24.45;;;;;;;27.95;14.13;93687.94;4927663;28;20397;-81
2021/03/05 09:33:40;;;;;;;37.50;24.92;;;;;;;27.70;14.37;93650.13;4903844;29;20521;-81
2021/03/05 09:36:28;;;;;;;56.90;31.42;;;;;;;27.68;14.33;93643.53;4920186;29;20083;-82
2021/03/05 09:39:10;;;;;;;36.47;23.05;;;;;;;27.86;13.95;93650.38;4902137;29;20051;-83
2021/03/05 09:41:47;;;;;;;38.08;20.23;;;;;;;27.98;13.45;93644.44;4920293;29;20046;-83
2021/03/05 09:44:12;;;;;;;39.65;19.27;;;;;;;28.05;13.37;93621.13;4918557;29;20514;-81
2021/03/05 09:46:42;;;;;;;111.28;69.25;;;;;;;27.97;13.52;93615.75;4901133;29;20496;-81
2021/03/05 09:49:25;;;;;;;36.97;18.33;;;;;;;27.37;13.76;93664.28;4916788;29;20416;-82
2021/03/05 09:51:53;;;;;;;24.75;16.52;;;;;;;27.05;13.49;93637.34;4921301;29;20618;-81
2021/03/05 09:54:36;;;;;;;60.42;42.45;;;;;;;26.53;13.10;93612.00;4919479;29;20503;-82
2021/03/05 09:57:02;;;;;;;23.42;14.63;;;;;;;26.53;13.50;93625.56;4925319;29;20036;-82
2021/03/05 09:59:51;;;;;;;35.53;21.67;;;;;;;27.08;13.61;93661.72;4905032;29;20103;-81
2021/03/05 10:02:21;;;;;;;26.70;12.80;;;;;;;27.49;13.46;93620.41;4897157;29;20078;-82
2021/03/05 10:04:49;;;;;;;22.33;12.52;;;;;;;26.84;12.36;93600.25;4918914;29;20427;-81
2021/03/05 10:07:16;;;;;;;20.85;12.35;;;;;;;26.95;12.44;93647.09;4922566;29;20055;-82
2021/03/05 10:09:44;;;;;;;20.17;11.73;;;;;;;26.07;12.88;93607.47;4921963;29;20035;-82
2021/03/05 10:12:11;;;;;;;63.90;35.28;;;;;;;26.05;13.70;93639.56;4899971;28;20047;-82
2021/03/05 10:14:40;;;;;;;20.75;11.27;;;;;;;26.20;13.21;93643.81;4894153;29;20123;-81
2021/03/05 10:17:14;;;;;;;18.45;10.98;;;;;;;25.88;11.87;93626.84;4920613;29;20035;-81
2021/03/05 10:19:43;;;;;;;63.22;38.30;;;;;;;25.03;13.92;93575.41;4904066;29;20463;-81
2021/03/05 10:22:13;;;;;;;30.55;19.75;;;;;;;25.67;12.02;93610.63;4917858;28;20048;-81
2021/03/05 10:24:40;;;;;;;7.40;4.28;;;;;;;26.34;11.55;93629.47;4922296;28;20040;-81
2021/03/05 10:27:11;;;;;;;4.53;3.03;;;;;;;26.42;11.21;93584.97;4903525;29;20963;-80
2021/03/05 10:29:47;;;;;;;3.72;2.88;;;;;;;26.37;11.67;93590.78;4920900;29;20040;-80
2021/03/05 10:32:48;;;;;;;3.00;2.65;;;;;;;26.46;11.07;93614.75;4935034;28;20051;-81
2021/03/05 10:35:16;;;;;;;5.55;2.97;;;;;;;26.38;11.48;93595.03;4930625;28;20469;-80
2021/03/05 10:37:48;;;;;;;5.25;3.00;;;;;;;26.52;10.84;93596.91;4923652;28;20038;-82
2021/03/05 10:40:15;;;;;;;6.38;2.30;;;;;;;26.40;10.92;93552.06;4929225;28;20091;-81
2021/03/05 10:42:41;;;;;;;8.95;3.30;;;;;;;26.47;10.78;93594.63;4875794;29;20101;-81
2021/03/05 10:45:08;;;;;;;3.47;2.60;;;;;;;25.61;11.92;93564.22;4924602;28;20425;-80
2021/03/05 10:47:34;;;;;;;4.50;3.42;;;;;;;25.46;11.83;93585.09;4940095;28;20528;-81
2021/03/05 10:50:01;;;;;;;4.60;2.88;;;;;;;24.71;11.69;93564.53;4923294;28;20054;-81
2021/03/05 10:52:27;;;;;;;5.95;3.80;;;;;;;24.07;12.35;93571.59;4937178;28;20041;-81
2021/03/05 10:54:53;;;;;;;3.78;2.40;;;;;;;23.62;12.58;93581.75;4942777;28;20109;-80
2021/03/05 10:57:22;;;;;;;4.25;2.60;;;;;;;23.28;12.27;93574.91;4933832;28;20070;-83
2021/03/05 10:59:50;;;;;;;3.10;2.45;;;;;;;23.09;13.09;93578.59;4941050;28;20133;-80
2021/03/05 11:02:19;;;;;;;5.70;3.08;;;;;;;22.45;13.63;93567.16;4936397;28;20086;-81
2021/03/05 11:04:47;;;;;;;6.28;3.08;;;;;;;22.45;13.80;93561.00;4938881;28;20034;-84
2021/03/05 11:07:30;;;;;;;3.45;2.60;;;;;;;22.22;13.10;93520.00;4877170;28;20074;-85
2021/03/05 11:10:05;;;;;;;5.90;2.20;;;;;;;21.87;12.91;93502.25;4852896;28;20039;-84
2021/03/05 11:13:16;;;;;;;5.00;2.60;;;;;;;21.78;13.46;93560.16;4842076;28;20040;-86
2021/03/05 11:18:34;;;;;;;;;;;;;;;;;;;;;
2021/03/05 11:24:29;;;;;;;5.00;2.78;;;;;;;20.91;14.03;93551.16;4849904;23;20081;-85
2021/03/05 11:27:20;;;;;;;4.43;2.58;;;;;;;21.18;13.82;93544.72;4842552;29;20476;-84
2021/03/05 11:29:58;;;;;;;5.88;2.75;;;;;;;20.68;11.76;93478.66;4848710;28;20519;-86
2021/03/05 11:32:41;;;;;;;2.10;1.85;;;;;;;20.67;13.92;93532.72;4901410;28;20051;-83
2021/03/05 11:35:37;;;;;;;5.25;1.83;;;;;;;20.57;12.62;93455.47;4926046;28;20053;-85
2021/03/05 11:38:27;;;;;;;4.43;2.38;;;;;;;21.08;13.62;93510.34;4874010;28;20197;-85
2021/03/05 11:41:25;;;;;;;3.30;2.40;;;;;;;20.98;13.59;93476.03;4930862;28;20075;-85
2021/03/05 11:44:04;;;;;;;;;;;;;;;;;;;;;
2021/03/05 11:46:58;;;;;;;3.78;2.90;;;;;;;21.18;14.40;93511.69;4899822;28;20405;-84
2021/03/05 11:49:30;;;;;;;3.63;2.63;;;;;;;21.03;13.55;93462.31;4792708;23;20078;-84
2021/03/05 11:55:27;;;;;;;4.55;2.90;;;;;;;20.97;14.42;93487.16;4967794;23;20215;-85
2021/03/05 11:58:04;;;;;;;3.10;2.55;;;;;;;21.30;13.90;93524.16;4863658;28;20430;-85
2021/03/05 12:00:50;;;;;;;3.53;2.92;;;;;;;21.05;14.77;93502.25;4915101;29;20134;-85
2021/03/05 12:03:53;;;;;;;7.25;2.90;;;;;;;20.87;14.48;93456.31;4884278;28;20077;-85
2021/03/05 12:06:38;;;;;;;5.03;2.97;;;;;;;20.69;14.96;93456.03;4875100;28;20337;-84
2021/03/05 12:09:21;;;;;;;4.30;3.45;;;;;;;20.56;15.05;93438.56;4933419;28;20078;-84
2021/03/05 12:11:59;;;;;;;5.45;3.78;;;;;;;20.63;15.03;93443.25;4868998;28;20128;-84
2021/03/05 12:14:53;;;;;;;4.78;3.13;;;;;;;20.98;14.61;93492.16;4869818;28;20059;-84
2021/03/05 12:17:32;;;;;;;10.52;3.30;;;;;;;20.42;14.08;93469.78;4919986;28;20537;-84
2021/03/05 12:19:58;;;;;;;8.50;4.25;;;;;;;20.66;14.95;93486.28;4929216;28;20047;-81
2021/03/05 12:22:24;;;;;;;5.47;4.03;;;;;;;20.77;15.61;93491.81;4933215;28;20440;-81
2021/03/05 12:24:49;;;;;;;3.90;3.15;;;;;;;20.78;15.62;93493.38;4940309;28;20505;-81
2021/03/05 12:27:18;;;;;;;3.92;2.28;;;;;;;20.53;13.45;93484.91;4947844;28;20086;-81
2021/03/05 12:29:43;;;;;;;4.15;2.78;;;;;;;20.60;14.63;93490.41;4935732;28;20107;-81
2021/03/05 12:32:09;;;;;;;5.32;2.88;;;;;;;20.48;13.50;93473.69;4942319;28;20031;-81
2021/03/05 12:34:35;;;;;;;4.35;2.78;;;;;;;20.54;13.05;93477.63;4954767;28;20078;-81
2021/03/05 12:37:01;;;;;;;4.57;3.47;;;;;;;20.81;15.43;93492.69;4944770;28;20078;-80
2021/03/05 12:39:27;;;;;;;7.22;3.28;;;;;;;20.58;14.52;93454.31;4939401;28;20051;-81
2021/03/05 12:41:53;;;;;;;6.53;3.58;;;;;;;20.76;15.15;93487.59;4913371;28;20109;-81
2021/03/05 12:44:18;;;;;;;5.70;3.90;;;;;;;20.79;15.01;93472.66;4940899;28;20042;-80
2021/03/05 12:46:44;;;;;;;6.20;4.00;;;;;;;20.80;14.58;93469.63;4950412;28;20037;-81
2021/03/05 12:49:10;;;;;;;5.88;3.70;;;;;;;20.80;14.39;93477.69;4957416;28;20493;-81
2021/03/05 12:51:35;;;;;;;5.97;3.70;;;;;;;20.90;15.80;93470.94;4951421;28;20101;-82